Anthony, IN

8:09 AM EDT on September 01, 2015 (GMT -0400)
Delaware County Emergency Management | | Change Station
CLOSE
Current Station
Personal Weather Station
Location: Muncie, IN
Elevation: 955 ft
Nearby Weather Stations

Elev 955 ft 40.19 °N, 85.38 °W | Updated 2 minutes ago

Clear
Clear
73.6 °F
Feels Like 75 °F
N
2.2
Wind Variable Wind from SW

Today
High -- | Low -- °F
--% Chance of Precip.
Yesterday
High -- | Low -- °F
Precip. -- in
7:08 AM 8:13 PM
Waning Gibbous, 89% visible
Pressure 30.11 in
Visibility 7.0 miles
Clouds Clear
Heat Index 75 °F
Dew Point 65 °F
Humidity 75%
Rainfall 0.00 in
Snow Depth Not available.
UV 0 out of 12
Pollen 10.20 out of 12
Air Quality Not available.
Flu Activity Not available.
METAR KMIE 011153Z 22004KT 7SM CLR 21/19 A3014 RMK AO2 SLP196 T02060194 10206 20183 52011
Pressure 30.11 in
Visibility 7.0 miles
Clouds Clear
Heat Index 75 °F
Dew Point 65 °F
Humidity 75%
Rainfall 0.00 in
Snow Depth Not available.
UV 0 out of 12
Pollen 10.20 out of 12
Air Quality Not available.
Flu Activity Not available.
METAR KMIE 011153Z 22004KT 7SM CLR 21/19 A3014 RMK AO2 SLP196 T02060194 10206 20183 52011

10-Day Weather Forecast

×

Almanac

Astronomy

Sep. 01, 2015 Rise Set
Actual Time
Civil Twilight
Nautical Twilight
Astronomical Twilight
Moon
Length of Visible Light
Length of Day
Tomorrow will be .
, % of the Moon is Illuminated

Today's Extremes

State Highs State Lows

Community

WunderPhotos

Upload Photos

1,851,508 photos uploaded!

WunderBlogs® & News

Nearby

Air Quality

  Air Quality AQ Index Pollutant
Not available.

Snow Depth

Station Depth Elevation

Earthquake Activity

City Distance Mag. Time & Date
Minimum magnitude displayed is 2.5.

Coastal Water Temperatures

Place Temperature

Stations

Nearby Weather Stations

Station Location Temp. Windchill Dew Point Humidity Wind Precip. Elev Updated Type